createdAt,value
2023-02-12T00:00:45.165Z,93.31
2023-02-12T00:03:13.256Z,93.45
2023-02-12T00:05:41.750Z,93.50
2023-02-12T00:08:12.246Z,93.53
2023-02-12T00:10:42.995Z,93.08
2023-02-12T00:13:10.975Z,92.70
2023-02-12T00:15:40.224Z,92.69
2023-02-12T00:18:08.240Z,92.73
2023-02-12T00:20:36.577Z,92.86
2023-02-12T00:23:04.538Z,93.17
2023-02-12T00:25:34.163Z,92.99
2023-02-12T00:28:02.008Z,93.13
2023-02-12T00:30:30.513Z,92.89
2023-02-12T00:32:58.355Z,92.98
2023-02-12T00:35:26.211Z,93.05
2023-02-12T00:37:54.023Z,92.90
2023-02-12T00:40:21.920Z,93.05
2023-02-12T00:42:51.577Z,93.24
2023-02-12T00:45:19.466Z,93.28
2023-02-12T00:47:47.307Z,93.45
2023-02-12T00:50:16.656Z,93.54
2023-02-12T00:52:44.526Z,93.61
2023-02-12T00:55:12.341Z,93.69
2023-02-12T00:57:40.143Z,93.72
2023-02-12T01:00:10.742Z,93.73
2023-02-12T01:02:38.713Z,93.74
2023-02-12T01:05:09.108Z,93.77
2023-02-12T01:07:38.486Z,93.80
2023-02-12T01:10:07.262Z,93.78
2023-02-12T01:12:35.439Z,93.75
2023-02-12T01:15:03.261Z,93.80
2023-02-12T01:17:32.494Z,93.88
2023-02-12T01:20:00.805Z,93.91
2023-02-12T01:22:28.598Z,93.88
2023-02-12T01:24:56.430Z,93.87
2023-02-12T01:27:24.352Z,94.21
2023-02-12T01:29:52.358Z,94.58
2023-02-12T01:32:22.182Z,94.35
2023-02-12T01:34:51.453Z,94.14
2023-02-12T01:37:22.792Z,94.00
2023-02-12T01:39:50.619Z,94.06
2023-02-12T01:42:19.679Z,93.85
2023-02-12T01:45:45.359Z,93.53
2023-02-12T01:48:14.590Z,93.17
2023-02-12T01:50:45.760Z,93.38
2023-02-12T01:53:20.006Z,93.38
2023-02-12T01:55:54.399Z,93.44
2023-02-12T01:58:23.591Z,93.66
2023-02-12T02:00:51.512Z,93.61
2023-02-12T02:03:19.678Z,93.69
2023-02-12T02:05:57.369Z,93.66
2023-02-12T02:08:27.033Z,93.84
2023-02-12T02:10:54.954Z,93.83
2023-02-12T02:13:40.464Z,93.51
2023-02-12T02:16:16.403Z,93.02
2023-02-12T02:18:52.527Z,92.87
2023-02-12T02:21:45.039Z,93.09
2023-02-12T02:24:42.598Z,93.21
2023-02-12T02:27:38.190Z,93.32
2023-02-12T02:30:31.466Z,93.51
2023-02-12T02:33:11.233Z,93.64
2023-02-12T02:35:47.003Z,93.58
2023-02-12T02:38:25.687Z,93.49
2023-02-12T02:40:59.639Z,93.29
2023-02-12T02:43:31.491Z,93.21
2023-02-12T02:46:07.293Z,93.00
2023-02-12T02:48:40.030Z,92.38
2023-02-12T02:51:11.452Z,92.24
2023-02-12T02:53:42.616Z,92.43
2023-02-12T02:56:16.870Z,92.58
2023-02-12T02:58:48.894Z,92.76
2023-02-12T03:01:23.268Z,92.96
2023-02-12T03:03:55.473Z,92.94
2023-02-12T03:06:28.631Z,93.14
2023-02-12T03:08:59.756Z,93.19
2023-02-12T03:11:30.309Z,92.89
2023-02-12T03:14:03.854Z,93.03
2023-02-12T03:16:35.908Z,92.98
2023-02-12T03:19:08.496Z,92.76
2023-02-12T03:21:44.672Z,92.57
2023-02-12T03:24:17.263Z,92.68
2023-02-12T03:26:49.617Z,92.76
2023-02-12T03:29:17.667Z,92.80
2023-02-12T03:32:00.762Z,92.70
2023-02-12T03:34:41.497Z,92.78
2023-02-12T03:37:13.829Z,92.69
2023-02-12T03:39:50.498Z,92.78
2023-02-12T03:42:25.311Z,92.86
2023-02-12T03:44:57.312Z,92.98
2023-02-12T03:47:37.959Z,93.08
2023-02-12T03:50:13.186Z,93.17
2023-02-12T03:52:41.546Z,92.82
2023-02-12T03:55:09.509Z,92.54
2023-02-12T03:57:42.079Z,92.54
2023-02-12T04:00:12.824Z,92.69
2023-02-12T04:02:44.954Z,92.69
2023-02-12T04:05:19.311Z,92.15
2023-02-12T04:07:47.536Z,91.93
2023-02-12T04:10:15.947Z,92.04
2023-02-12T04:12:53.163Z,92.22
2023-02-12T04:15:38.108Z,92.26
2023-02-12T04:18:12.458Z,92.32
2023-02-12T04:20:49.786Z,92.42
2023-02-12T04:23:30.517Z,92.61
2023-02-12T04:26:09.009Z,92.53
2023-02-12T04:28:44.126Z,92.59
2023-02-12T04:31:21.655Z,92.58
2023-02-12T04:33:59.321Z,92.47
2023-02-12T04:36:30.604Z,92.55
2023-02-12T04:39:02.009Z,92.61
2023-02-12T04:41:31.662Z,92.61
2023-02-12T04:43:59.493Z,92.65
2023-02-12T04:46:27.448Z,92.40
2023-02-12T04:48:59.154Z,92.47
2023-02-12T04:51:26.976Z,92.45
2023-02-12T04:53:54.763Z,92.43
2023-02-12T04:56:22.557Z,92.48
2023-02-12T04:58:50.416Z,92.60
2023-02-12T05:01:18.236Z,92.47
2023-02-12T05:03:46.332Z,92.47
2023-02-12T05:06:15.581Z,92.50
2023-02-12T05:08:43.340Z,92.55
2023-02-12T05:11:12.651Z,92.61
2023-02-12T05:13:41.734Z,92.59
2023-02-12T05:16:09.856Z,92.58
2023-02-12T05:18:37.784Z,92.54
2023-02-12T05:21:06.386Z,92.40
2023-02-12T05:23:38.776Z,92.29
2023-02-12T05:26:09.096Z,92.47
2023-02-12T05:28:37.221Z,92.66
2023-02-12T05:31:07.733Z,92.58
2023-02-12T05:33:35.737Z,92.57
2023-02-12T05:36:08.857Z,92.43
2023-02-12T05:38:38.021Z,92.57
2023-02-12T05:41:07.455Z,92.71
2023-02-12T05:43:35.328Z,92.80
2023-02-12T05:46:04.780Z,92.79
2023-02-12T05:48:33.511Z,92.75
2023-02-12T05:51:05.611Z,93.84
2023-02-12T05:53:33.972Z,94.11
2023-02-12T05:56:11.368Z,94.22
2023-02-12T05:58:39.668Z,93.85
2023-02-12T06:01:11.976Z,93.39
2023-02-12T06:03:40.107Z,93.20
2023-02-12T06:06:08.189Z,93.27
2023-02-12T06:08:37.250Z,92.88
2023-02-12T06:11:07.612Z,92.76
2023-02-12T06:13:36.784Z,93.14
2023-02-12T06:16:05.096Z,92.86
2023-02-12T06:18:32.983Z,92.47
2023-02-12T06:21:00.797Z,92.76
2023-02-12T06:23:28.595Z,92.45
2023-02-12T06:25:58.124Z,92.06
2023-02-12T06:28:26.305Z,91.46
2023-02-12T06:30:55.569Z,91.39
2023-02-12T06:33:23.458Z,91.69
2023-02-12T06:35:51.362Z,91.63
2023-02-12T06:38:19.379Z,91.31
2023-02-12T06:40:47.210Z,91.23
2023-02-12T06:43:15.303Z,91.18
2023-02-12T06:45:43.141Z,91.47
2023-02-12T06:48:12.316Z,91.47
2023-02-12T06:50:40.207Z,91.36
2023-02-12T06:53:08.055Z,91.63
2023-02-12T06:55:36.068Z,91.47
2023-02-12T06:58:03.895Z,91.91
2023-02-12T07:00:31.900Z,92.04
2023-02-12T07:02:59.775Z,92.51
2023-02-12T07:05:28.931Z,92.23
2023-02-12T07:07:56.738Z,92.29
2023-02-12T07:10:24.530Z,91.92
2023-02-12T07:12:52.343Z,91.40
2023-02-12T07:15:20.220Z,91.63
2023-02-12T07:17:48.073Z,92.17
2023-02-12T07:20:15.981Z,92.23
2023-02-12T07:22:45.133Z,92.23
2023-02-12T07:25:12.954Z,91.39
2023-02-12T07:27:40.816Z,91.41
2023-02-12T07:30:09.847Z,91.85
2023-02-12T07:32:37.680Z,91.63
2023-02-12T07:35:05.811Z,91.68
2023-02-12T07:37:34.908Z,91.23
2023-02-12T07:40:04.895Z,91.06
2023-02-12T07:42:32.745Z,90.88
2023-02-12T07:45:07.588Z,91.01
2023-02-12T07:47:38.476Z,91.30
2023-02-12T07:50:08.308Z,91.09
2023-02-12T07:52:36.131Z,91.24
2023-02-12T07:55:05.702Z,90.86
2023-02-12T07:57:33.542Z,90.74
2023-02-12T08:00:01.368Z,90.65
2023-02-12T08:02:29.290Z,90.48
2023-02-12T08:04:58.162Z,90.53
2023-02-12T08:07:26.385Z,90.95
2023-02-12T08:09:54.257Z,90.62
2023-02-12T08:12:23.855Z,90.79
2023-02-12T08:14:51.701Z,90.09
2023-02-12T08:17:19.517Z,90.13
2023-02-12T08:19:47.377Z,90.14
2023-02-12T08:22:15.208Z,89.95
2023-02-12T08:24:43.409Z,89.51
2023-02-12T08:27:11.524Z,89.12
2023-02-12T08:29:40.765Z,88.75
2023-02-12T08:32:10.732Z,88.75
2023-02-12T08:34:38.657Z,88.69
2023-02-12T08:37:07.589Z,88.04
2023-02-12T08:39:35.765Z,87.48
2023-02-12T08:42:03.636Z,87.29
2023-02-12T08:44:31.509Z,86.53
2023-02-12T08:47:00.624Z,86.98
2023-02-12T08:49:30.837Z,87.48
2023-02-12T08:52:01.807Z,87.66
2023-02-12T08:54:31.461Z,87.56
2023-02-12T08:57:00.820Z,87.57
2023-02-12T08:59:28.539Z,87.49
2023-02-12T09:01:56.577Z,87.76
2023-02-12T09:04:27.891Z,87.52
2023-02-12T09:06:56.548Z,87.23
2023-02-12T09:09:24.859Z,87.43
2023-02-12T09:11:52.823Z,87.35
2023-02-12T09:14:24.065Z,87.06
2023-02-12T09:16:53.441Z,87.27
2023-02-12T09:19:21.710Z,87.01
2023-02-12T09:21:55.795Z,86.95
2023-02-12T09:24:23.820Z,86.81
2023-02-12T09:26:51.707Z,86.83
2023-02-12T09:29:21.333Z,86.59
2023-02-12T09:31:49.311Z,86.54
2023-02-12T09:34:17.276Z,86.41
2023-02-12T09:36:45.474Z,86.22
2023-02-12T09:39:14.705Z,86.24
2023-02-12T09:42:06.006Z,85.71
2023-02-12T09:44:41.959Z,86.26
2023-02-12T09:47:16.627Z,86.02
2023-02-12T09:49:57.751Z,85.78
2023-02-12T09:52:28.519Z,86.10
2023-02-12T09:54:58.318Z,85.96
2023-02-12T09:57:31.170Z,86.27
2023-02-12T10:00:00.915Z,85.72
2023-02-12T10:02:28.841Z,86.28
2023-02-12T10:05:01.627Z,85.60
2023-02-12T10:07:41.479Z,85.49
2023-02-12T10:10:29.991Z,84.45
2023-02-12T10:13:03.007Z,85.08
2023-02-12T10:15:39.599Z,84.53
2023-02-12T10:18:37.968Z,85.01
2023-02-12T10:21:15.766Z,85.28
2023-02-12T10:23:59.737Z,84.80
2023-02-12T10:26:31.829Z,84.71
2023-02-12T10:29:10.509Z,84.11
2023-02-12T10:31:42.283Z,83.73
2023-02-12T10:34:17.823Z,83.92
2023-02-12T10:36:49.187Z,82.95
2023-02-12T10:39:23.426Z,83.23
2023-02-12T10:41:57.445Z,83.60
2023-02-12T10:44:25.340Z,83.43
2023-02-12T10:46:53.160Z,82.88
2023-02-12T10:49:21.667Z,83.35
2023-02-12T10:52:16.437Z,83.34
2023-02-12T10:54:45.846Z,82.38
2023-02-12T10:57:22.480Z,81.25
2023-02-12T10:59:53.824Z,82.14
2023-02-12T11:02:27.967Z,82.50
2023-02-12T11:04:58.048Z,83.01
2023-02-12T11:07:26.765Z,82.91
2023-02-12T11:09:56.833Z,82.88
2023-02-12T11:12:32.684Z,82.23
2023-02-12T11:15:03.908Z,82.18
2023-02-12T11:17:36.100Z,82.03
2023-02-12T11:20:23.347Z,81.59
2023-02-12T11:22:56.191Z,82.24
2023-02-12T11:25:26.100Z,82.09
2023-02-12T11:28:07.827Z,82.48
2023-02-12T11:30:36.659Z,82.94
2023-02-12T11:33:22.597Z,81.36
2023-02-12T11:35:52.939Z,81.92
2023-02-12T11:38:25.964Z,81.60
2023-02-12T11:40:58.728Z,81.50
2023-02-12T11:43:31.052Z,81.12
2023-02-12T11:46:01.522Z,81.91
2023-02-12T11:48:34.578Z,81.77
2023-02-12T11:51:04.822Z,80.54
2023-02-12T11:53:36.234Z,81.26
2023-02-12T11:56:07.044Z,80.92
2023-02-12T11:58:36.476Z,80.52
2023-02-12T12:01:08.974Z,80.57
2023-02-12T12:03:44.036Z,80.79
2023-02-12T12:06:22.907Z,80.95
2023-02-12T12:08:57.271Z,80.87
2023-02-12T12:11:30.057Z,81.06
2023-02-12T12:14:04.801Z,81.32
2023-02-12T12:16:56.340Z,80.82
2023-02-12T12:19:48.599Z,81.50
2023-02-12T12:22:24.613Z,80.59
2023-02-12T12:24:58.211Z,80.82
2023-02-12T12:27:50.604Z,80.56
2023-02-12T12:30:25.365Z,81.79
2023-02-12T12:32:56.637Z,82.05
2023-02-12T12:35:33.793Z,82.16
2023-02-12T12:38:06.432Z,81.58
2023-02-12T12:40:45.447Z,81.63
2023-02-12T12:43:19.307Z,82.37
2023-02-12T12:46:15.342Z,82.17
2023-02-12T12:48:54.660Z,82.45
2023-02-12T12:51:32.016Z,82.02
2023-02-12T12:54:16.475Z,82.59
2023-02-12T12:56:58.735Z,83.09
2023-02-12T12:59:50.380Z,83.18
2023-02-12T13:02:51.643Z,83.45
2023-02-12T13:05:34.466Z,83.44
2023-02-12T13:08:11.354Z,82.66
2023-02-12T13:10:48.137Z,82.51
2023-02-12T13:13:26.301Z,82.31
2023-02-12T13:16:02.257Z,82.24
2023-02-12T13:18:42.464Z,81.71
2023-02-12T13:21:17.221Z,81.95
2023-02-12T13:23:52.854Z,82.45
2023-02-12T13:26:30.625Z,82.59
2023-02-12T13:29:03.216Z,83.05
2023-02-12T13:31:34.654Z,83.55
2023-02-12T13:34:08.137Z,83.62
2023-02-12T13:36:38.709Z,83.92
2023-02-12T13:39:17.120Z,84.30
2023-02-12T13:41:53.571Z,84.32
2023-02-12T13:44:31.252Z,84.03
2023-02-12T13:47:05.976Z,83.70
2023-02-12T13:49:42.530Z,83.33
2023-02-12T13:52:18.925Z,82.94
2023-02-12T13:54:54.355Z,83.72
2023-02-12T13:57:22.911Z,83.92
2023-02-12T13:59:53.627Z,84.07
2023-02-12T14:02:43.805Z,84.01
2023-02-12T14:05:26.385Z,83.77
2023-02-12T14:07:57.102Z,83.29
2023-02-12T14:10:28.837Z,83.02
2023-02-12T14:13:09.646Z,83.42
2023-02-12T14:15:39.933Z,83.24
2023-02-12T14:18:32.107Z,83.63
2023-02-12T14:21:45.522Z,84.05
2023-02-12T14:24:52.384Z,84.58
2023-02-12T14:27:28.996Z,84.86
2023-02-12T14:30:19.030Z,84.70
2023-02-12T14:33:20.174Z,84.94
2023-02-12T14:35:49.491Z,85.01
2023-02-12T14:38:47.455Z,84.92
2023-02-12T14:41:42.574Z,85.40
2023-02-12T14:44:47.315Z,85.32
2023-02-12T14:47:48.346Z,85.54
2023-02-12T14:50:22.953Z,85.42
2023-02-12T14:52:55.260Z,85.53
2023-02-12T14:55:30.988Z,85.52
2023-02-12T14:58:03.157Z,85.52
2023-02-12T15:00:38.021Z,85.48
2023-02-12T15:03:25.140Z,85.39
2023-02-12T15:06:00.910Z,85.41
2023-02-12T15:08:36.816Z,85.42
2023-02-12T15:11:17.751Z,85.42
2023-02-12T15:13:53.183Z,85.62
2023-02-12T15:16:32.457Z,85.64
2023-02-12T15:19:03.052Z,85.77
2023-02-12T15:21:33.236Z,85.92
2023-02-12T15:24:07.561Z,85.79
2023-02-12T15:26:41.490Z,86.19
2023-02-12T15:29:20.099Z,86.15
2023-02-12T15:31:52.980Z,86.01
2023-02-12T15:34:25.078Z,85.99
2023-02-12T15:36:53.767Z,86.20
2023-02-12T15:39:23.478Z,85.98
2023-02-12T15:41:52.215Z,86.13
2023-02-12T15:44:27.334Z,86.04
2023-02-12T15:47:00.932Z,85.94
2023-02-12T15:49:33.018Z,86.05
2023-02-12T15:52:06.008Z,86.09
2023-02-12T15:54:33.999Z,86.12
2023-02-12T15:57:02.556Z,86.08
2023-02-12T15:59:31.772Z,86.24
2023-02-12T16:02:00.843Z,86.44
2023-02-12T16:04:33.506Z,86.45
2023-02-12T16:07:02.523Z,86.58
2023-02-12T16:09:32.748Z,86.73
2023-02-12T16:12:02.494Z,86.97
2023-02-12T16:14:40.668Z,86.97
2023-02-12T16:17:21.668Z,87.16
2023-02-12T16:19:55.476Z,87.40
2023-02-12T16:22:31.810Z,87.31
2023-02-12T16:25:01.198Z,87.55
2023-02-12T16:27:30.911Z,87.43
2023-02-12T16:30:02.882Z,87.64
2023-02-12T16:32:36.518Z,87.61
2023-02-12T16:35:08.583Z,87.71
2023-02-12T16:37:48.625Z,87.82
2023-02-12T16:40:27.325Z,87.75
2023-02-12T16:43:22.679Z,87.84
2023-02-12T16:45:52.890Z,87.95
2023-02-12T16:48:25.775Z,87.98
2023-02-12T16:50:56.158Z,87.98
2023-02-12T16:53:27.694Z,87.98
2023-02-12T16:55:55.922Z,88.09
2023-02-12T16:58:25.787Z,88.10
2023-02-12T17:00:56.167Z,88.13
2023-02-12T17:03:25.219Z,88.12
2023-02-12T17:05:53.319Z,88.20
2023-02-12T17:08:23.477Z,88.23
2023-02-12T17:10:51.838Z,88.20
2023-02-12T17:13:21.243Z,88.18
2023-02-12T17:15:52.645Z,88.39
2023-02-12T17:18:22.593Z,88.27
2023-02-12T17:20:54.753Z,88.18
2023-02-12T17:23:23.532Z,88.26
2023-02-12T17:25:51.701Z,88.33
2023-02-12T17:28:19.762Z,88.59
2023-02-12T17:30:47.911Z,88.41
2023-02-12T17:33:17.351Z,88.39
2023-02-12T17:35:46.477Z,88.51
2023-02-12T17:38:14.428Z,88.65
2023-02-12T17:40:42.443Z,88.65
2023-02-12T17:43:10.326Z,88.67
2023-02-12T17:45:42.988Z,88.60
2023-02-12T17:48:11.272Z,88.67
2023-02-12T17:50:39.484Z,88.78
2023-02-12T17:53:08.840Z,88.72
2023-02-12T17:55:38.907Z,88.75
2023-02-12T17:58:07.259Z,88.74
2023-02-12T18:00:35.082Z,88.76
2023-02-12T18:03:02.973Z,88.81
2023-02-12T18:05:30.872Z,88.84
2023-02-12T18:07:58.736Z,88.85
2023-02-12T18:10:27.959Z,88.62
2023-02-12T18:12:55.803Z,88.98
2023-02-12T18:15:23.613Z,89.10
2023-02-12T18:17:51.503Z,89.15
2023-02-12T18:20:19.513Z,88.98
2023-02-12T18:22:47.453Z,89.00
2023-02-12T18:25:16.841Z,89.34
2023-02-12T18:27:46.659Z,89.41
2023-02-12T18:30:15.283Z,89.83
2023-02-12T18:32:43.390Z,90.05
2023-02-12T18:35:11.246Z,90.00
2023-02-12T18:37:43.247Z,90.31
2023-02-12T18:40:12.342Z,90.51
2023-02-12T18:42:40.362Z,91.04
2023-02-12T18:45:10.117Z,91.12
2023-02-12T18:47:37.979Z,91.29
2023-02-12T18:50:06.686Z,91.13
2023-02-12T18:52:34.597Z,91.63
2023-02-12T18:55:02.454Z,91.81
2023-02-12T18:57:31.111Z,91.97
2023-02-12T18:59:58.953Z,91.72
2023-02-12T19:02:28.225Z,92.48
2023-02-12T19:04:55.997Z,92.06
2023-02-12T19:07:23.884Z,92.58
2023-02-12T19:09:52.679Z,92.69
2023-02-12T19:12:20.510Z,93.15
2023-02-12T19:14:48.376Z,93.59
2023-02-12T19:17:16.237Z,93.68
2023-02-12T19:19:45.511Z,93.46
2023-02-12T19:22:13.372Z,93.17
2023-02-12T19:24:47.016Z,93.53
2023-02-12T19:27:15.220Z,93.43
2023-02-12T19:29:43.261Z,93.64
2023-02-12T19:32:11.250Z,93.28
2023-02-12T19:34:39.255Z,93.45
2023-02-12T19:37:10.922Z,93.61
2023-02-12T19:39:40.052Z,94.28
2023-02-12T19:42:07.914Z,94.15
2023-02-12T19:44:36.428Z,93.67
2023-02-12T19:47:04.311Z,94.63
2023-02-12T19:49:32.225Z,94.52
2023-02-12T19:52:00.041Z,94.29
2023-02-12T19:54:29.320Z,94.25
2023-02-12T19:56:57.250Z,93.87
2023-02-12T19:59:26.856Z,94.46
2023-02-12T20:01:56.080Z,94.80
2023-02-12T20:04:25.390Z,94.99
2023-02-12T20:06:54.649Z,95.03
2023-02-12T20:09:23.459Z,95.44
2023-02-12T20:11:53.296Z,94.86
2023-02-12T20:14:22.654Z,95.51
2023-02-12T20:16:50.765Z,95.94
2023-02-12T20:19:21.176Z,95.15
2023-02-12T20:21:54.338Z,95.04
2023-02-12T20:24:22.685Z,95.63
2023-02-12T20:26:52.183Z,95.24
2023-02-12T20:29:20.823Z,95.38
2023-02-12T20:31:49.465Z,94.83
2023-02-12T20:34:19.650Z,95.62
2023-02-12T20:36:48.015Z,95.92
2023-02-12T20:39:20.301Z,95.64
2023-02-12T20:41:48.983Z,95.77
2023-02-12T20:44:20.013Z,95.66
2023-02-12T20:46:49.444Z,95.70
2023-02-12T20:49:19.787Z,95.74
2023-02-12T20:51:50.887Z,95.40
2023-02-12T20:54:18.965Z,95.24
2023-02-12T20:56:46.912Z,95.13
2023-02-12T20:59:14.798Z,95.08
2023-02-12T21:01:44.166Z,95.28
2023-02-12T21:04:12.928Z,94.88
2023-02-12T21:06:41.640Z,94.69
2023-02-12T21:09:10.646Z,94.76
2023-02-12T21:11:39.833Z,94.85
2023-02-12T21:14:21.238Z,94.84
2023-02-12T21:16:52.764Z,94.74
2023-02-12T21:19:21.056Z,94.67
2023-02-12T21:21:49.030Z,94.29
2023-02-12T21:24:19.626Z,94.14
2023-02-12T21:26:47.629Z,93.99
2023-02-12T21:29:18.628Z,93.87
2023-02-12T21:31:48.052Z,93.83
2023-02-12T21:34:19.486Z,93.75
2023-02-12T21:36:48.834Z,93.75
2023-02-12T21:39:24.308Z,93.75
2023-02-12T21:41:53.882Z,93.67
2023-02-12T21:44:22.814Z,93.61
2023-02-12T21:46:50.929Z,94.17
2023-02-12T21:49:24.931Z,93.73
2023-02-12T21:51:54.688Z,94.03
2023-02-12T21:54:23.239Z,94.00
2023-02-12T21:56:52.056Z,93.87
2023-02-12T21:59:20.891Z,94.09
2023-02-12T22:01:50.329Z,94.21
2023-02-12T22:04:18.806Z,93.83
2023-02-12T22:06:49.423Z,94.76
2023-02-12T22:09:19.309Z,94.00
2023-02-12T22:11:47.622Z,94.19
2023-02-12T22:14:17.565Z,94.38
2023-02-12T22:16:47.421Z,94.50
2023-02-12T22:19:15.508Z,94.54
2023-02-12T22:21:44.574Z,94.49
2023-02-12T22:24:16.322Z,94.12
2023-02-12T22:26:46.919Z,94.14
2023-02-12T22:29:16.257Z,94.11
2023-02-12T22:31:45.017Z,93.88
2023-02-12T22:34:15.458Z,93.80
2023-02-12T22:36:43.766Z,93.30
2023-02-12T22:39:14.717Z,93.14
2023-02-12T22:41:43.236Z,93.09
2023-02-12T22:44:12.512Z,93.31
2023-02-12T22:46:40.828Z,93.02
2023-02-12T22:49:08.817Z,93.20
2023-02-12T22:51:39.030Z,93.47
2023-02-12T22:54:07.493Z,93.57
2023-02-12T22:56:36.834Z,93.64
2023-02-12T22:59:04.672Z,93.56
2023-02-12T23:01:32.824Z,93.16
2023-02-12T23:04:00.862Z,93.02
2023-02-12T23:06:30.899Z,92.97
2023-02-12T23:09:00.976Z,93.10
2023-02-12T23:11:30.646Z,92.89
2023-02-12T23:14:00.475Z,92.70
2023-02-12T23:16:28.572Z,92.53
2023-02-12T23:18:57.455Z,92.41
2023-02-12T23:21:26.142Z,92.42
2023-02-12T23:23:54.304Z,92.26
2023-02-12T23:26:22.743Z,92.02
2023-02-12T23:28:50.762Z,91.99
2023-02-12T23:31:20.213Z,91.97
2023-02-12T23:33:48.475Z,91.91
2023-02-12T23:36:16.830Z,92.00
2023-02-12T23:38:44.885Z,91.82
2023-02-12T23:41:13.093Z,91.87
2023-02-12T23:43:41.168Z,92.01
2023-02-12T23:46:09.652Z,91.80
2023-02-12T23:48:39.075Z,91.83
2023-02-12T23:51:06.961Z,91.73
2023-02-12T23:53:34.915Z,91.65
2023-02-12T23:56:02.784Z,91.86
2023-02-12T23:58:30.820Z,91.80
